Terminal Aerodrome Forecast
Issued by NWS Sterling, VA

Current Version | Previous Version | Text Only | Print | Product List | Glossary Off
Versions: 1 2 3 4 5 6 7 8 9 10 11 12 13 14 15 16 17 18 19 20 21 22 23

000
FTUS41 KLWX 190248 AAA
TAFIAD
TAF AMD
KIAD 190248Z 1903/2006 09010G18KT 5SM -RA BR OVC008
     FM190600 07007KT 1SM +RA BR BKN003 OVC008
     FM191300 11007KT 2SM -RA OVC008
     FM191600 16007KT P6SM OVC008
     FM192100 18010G17KT P6SM OVC015=

USA.gov is the U.S. government's official web portal to all federal, state and local government web resources and services.